Bookmark and Share
Track history (hours):
 

Umm Slal

Last reported at 2014-Apr-14 18:34 UTC. Time now 2014-Apr-16 13:44 UTC.
Position N 50°54' W 006°05'.

Length 345 m; draft 12 m.

Type: Ship (hazmat cat D). MMSI: 538003300.

NotesDate/timePositionNaut miles runAvg speedWind from/ knotsBaromVisibWave heightAir tempDewpointWater temp
2014-Apr-14 18:34N 50°54' W 006°05'62415.6
2014-Apr-13 02:33N 40°51' W 009°57'2115.7
2014-Apr-13 01:14N 40°31' W 009°57'1115.7
2014-Apr-13 00:33N 40°20' W 009°57'1615.6
2014-Apr-12 23:33N 40°04' W 009°57'1615.5
2014-Apr-12 22:29N 39°48' W 009°57'3515.8
2014-Apr-12 20:18N 39°13' W 009°57'1815.7
2014-Apr-12 19:09N 38°55' W 009°57'1115.4
2014-Apr-12 18:28N 38°45' W 009°57'1515.0
2014-Apr-12 17:26N 38°30' W 009°53'1415.5
2014-Apr-12 16:33N 38°16' W 009°50'1615.8
2014-Apr-12 15:33N 38°01' W 009°45'1515.7
2014-Apr-12 14:33N 37°46' W 009°39'1615.5
2014-Apr-12 13:33N 37°31' W 009°34'1515.3
2014-Apr-12 12:33N 37°16' W 009°31'1615.6
2014-Apr-12 11:33N 37°00' W 009°27'1515.2
2014-Apr-12 10:33N 36°46' W 009°19'1815.1
2014-Apr-12 09:22N 36°38' W 008°59'1316.0
2014-Apr-12 08:33N 36°36' W 008°43'1615.9
2014-Apr-12 07:33N 36°34' W 008°23'1616.3
2014-Apr-12 06:33N 36°32' W 008°03'12414.9
2014-Apr-11 22:14N 35°57' W 005°36'1014.3
2014-Apr-11 21:33N 35°60' W 005°24'1515.2
2014-Apr-11 20:33N 36°05' W 005°07'15515.5
2014-Apr-11 10:33N 36°19' W 001°56'13015.9
2014-Apr-11 02:20N 37°02' E 000°38'1316.1
2014-Apr-11 01:33N 37°06' E 000°53'1716.2
2014-Apr-11 00:32N 37°11' E 001°12'1616.1
2014-Apr-10 23:33N 37°16' E 001°31'1616.4
2014-Apr-10 22:33N 37°22' E 001°50'1616.3
2014-Apr-10 21:33N 37°26' E 002°10'1515.6
2014-Apr-10 20:34N 37°30' E 002°29'1616.3
2014-Apr-10 19:33N 37°31' E 002°50'1616.2
2014-Apr-10 18:33N 37°33' E 003°10'1616.0
2014-Apr-10 17:32N 37°36' E 003°30'1615.9
2014-Apr-10 16:33N 37°37' E 003°50'22916.4
2014-Apr-10 02:32N 38°05' E 008°38'1715.5
2014-Apr-10 01:25N 38°06' E 008°60'1615.9
2014-Apr-10 00:26N 38°00' E 009°19'4715.9
2014-Apr-09 21:28N 37°44' E 010°15'1815.6
2014-Apr-09 20:19N 37°38' E 010°36'1215.3
2014-Apr-09 19:30N 37°34' E 010°51'1415.2
2014-Apr-09 18:34N 37°28' E 011°08'1615.9
2014-Apr-09 17:34N 37°21' E 011°25'1915.9
2014-Apr-09 16:22N 37°10' E 011°45'1315.8
2014-Apr-09 15:33N 37°04' E 011°59'1616.0
2014-Apr-09 14:33N 36°57' E 012°17'1616.0
2014-Apr-09 13:34N 36°50' E 012°35'1616.2
2014-Apr-09 12:34N 36°43' E 012°53'1615.7
2014-Apr-09 11:34N 36°39' E 013°12'1615.6
2014-Apr-09 10:34N 36°33' E 013°30'1615.7
2014-Apr-09 09:34N 36°25' E 013°47'1615.8
2014-Apr-09 08:34N 36°20' E 014°05'1616.1
2014-Apr-09 07:34N 36°15' E 014°25'1615.8
2014-Apr-09 06:34N 36°11' E 014°43'1615.9
2014-Apr-09 05:33N 36°07' E 015°02'1715.7
2014-Apr-09 04:28N 36°02' E 015°23'  
2014-Apr-06 23:33N 32°13' E 031°33'1716.2
2014-Apr-06 22:30N 31°58' E 031°44'1516.0
2014-Apr-06 21:33N 31°48' E 031°57'1615.9
2014-Apr-06 20:34N 31°36' E 032°09'  

Dump ship's entire track history

sailing weather and tide predictions

Umm Slal — V7PW3 — position and weather